createdAt,value
2019-02-19T00:05:44.019Z,5.50
2019-02-19T00:11:48.573Z,5.50
2019-02-19T00:17:53.276Z,5.50
2019-02-19T00:23:58.387Z,5.40
2019-02-19T00:30:04.030Z,5.20
2019-02-19T00:36:08.832Z,5.10
2019-02-19T00:42:13.413Z,4.90
2019-02-19T00:48:18.107Z,4.80
2019-02-19T00:54:22.650Z,4.70
2019-02-19T01:00:27.274Z,4.80
2019-02-19T01:06:32.036Z,4.90
2019-02-19T01:12:36.670Z,4.90
2019-02-19T01:18:42.919Z,4.80
2019-02-19T01:24:47.612Z,4.90
2019-02-19T01:30:52.842Z,5.10
2019-02-19T01:36:57.416Z,5.00
2019-02-19T01:43:02.265Z,5.00
2019-02-19T01:49:06.815Z,5.00
2019-02-19T01:55:11.474Z,4.60
2019-02-19T02:01:16.027Z,4.30
2019-02-19T02:07:21.957Z,4.10
2019-02-19T02:13:26.540Z,4.10
2019-02-19T02:19:31.714Z,4.20
2019-02-19T02:25:36.539Z,3.80
2019-02-19T02:31:41.519Z,3.70
2019-02-19T02:37:49.258Z,3.80
2019-02-19T02:43:53.969Z,3.90
2019-02-19T02:49:58.985Z,4.00
2019-02-19T02:56:03.666Z,4.20
2019-02-19T03:02:08.459Z,4.10
2019-02-19T03:08:13.220Z,3.90
2019-02-19T03:14:18.029Z,4.10
2019-02-19T03:20:23.863Z,4.20
2019-02-19T03:26:29.092Z,4.30
2019-02-19T03:32:33.902Z,3.90
2019-02-19T03:38:38.455Z,3.90
2019-02-19T03:44:43.319Z,3.90
2019-02-19T03:50:47.954Z,3.50
2019-02-19T03:56:52.661Z,3.20
2019-02-19T04:02:57.471Z,2.90
2019-02-19T04:09:02.284Z,2.70
2019-02-19T04:15:08.561Z,2.40
2019-02-19T04:21:13.124Z,2.30
2019-02-19T04:27:17.727Z,2.20
2019-02-19T04:33:22.396Z,2.20
2019-02-19T04:39:30.674Z,2.10
2019-02-19T04:45:35.471Z,2.00
2019-02-19T04:51:40.110Z,1.90
2019-02-19T04:57:44.880Z,2.00
2019-02-19T05:03:49.438Z,1.90
2019-02-19T05:09:55.130Z,2.00
2019-02-19T05:15:59.743Z,2.30
2019-02-19T05:22:04.560Z,2.30
2019-02-19T05:28:09.126Z,2.40
2019-02-19T05:34:13.750Z,2.80
2019-02-19T05:40:18.489Z,3.30
2019-02-19T05:46:23.040Z,4.00
2019-02-19T05:52:29.265Z,4.50
2019-02-19T05:58:34.010Z,4.80
2019-02-19T06:04:38.890Z,5.00
2019-02-19T06:10:44.182Z,5.20
2019-02-19T06:16:49.052Z,5.30
2019-02-19T06:22:55.229Z,5.40
2019-02-19T06:29:01.967Z,5.50
2019-02-19T06:35:08.033Z,5.60
2019-02-19T06:41:15.034Z,5.60
2019-02-19T06:47:19.960Z,5.70
2019-02-19T06:53:24.825Z,5.80
2019-02-19T06:59:29.935Z,5.70
2019-02-19T07:05:34.649Z,5.60
2019-02-19T07:11:39.212Z,5.60
2019-02-19T07:17:43.761Z,5.70
2019-02-19T07:23:48.350Z,5.70
2019-02-19T07:29:52.902Z,5.80
2019-02-19T07:35:57.451Z,5.80
2019-02-19T07:42:02.146Z,5.90
2019-02-19T07:48:06.740Z,6.00
2019-02-19T08:00:21.222Z,6.10
2019-02-19T08:06:25.793Z,6.20
2019-02-19T08:12:30.504Z,6.40
2019-02-19T08:18:35.353Z,6.60
2019-02-19T08:24:39.984Z,6.70
2019-02-19T08:30:44.612Z,6.80
2019-02-19T08:36:49.227Z,6.90
2019-02-19T08:42:53.865Z,6.90
2019-02-19T08:49:00.884Z,7.00
2019-02-19T08:55:06.689Z,7.10
2019-02-19T09:01:11.463Z,7.30
2019-02-19T09:07:16.300Z,7.20
2019-02-19T09:13:21.030Z,7.30
2019-02-19T09:19:25.575Z,7.40
2019-02-19T09:25:30.616Z,7.50
2019-02-19T09:31:35.317Z,7.40
2019-02-19T09:37:40.055Z,7.40
2019-02-19T09:43:44.787Z,7.50
2019-02-19T09:49:49.369Z,7.60
2019-02-19T09:55:54.533Z,7.80
2019-02-19T10:01:59.276Z,8.10
2019-02-19T10:08:03.934Z,8.60
2019-02-19T10:14:08.715Z,8.80
2019-02-19T10:20:13.572Z,9.00
2019-02-19T10:26:18.201Z,9.10
2019-02-19T10:32:23.780Z,9.30
2019-02-19T10:38:28.422Z,9.30
2019-02-19T10:44:33.550Z,9.40
2019-02-19T10:50:38.442Z,9.40
2019-02-19T10:56:43.000Z,9.30
2019-02-19T11:02:48.013Z,9.40
2019-02-19T11:08:52.721Z,9.40
2019-02-19T11:14:57.261Z,9.50
2019-02-19T11:21:02.669Z,9.50
2019-02-19T11:27:07.245Z,9.50
2019-02-19T11:33:11.949Z,9.40
2019-02-19T11:39:16.803Z,9.40
2019-02-19T11:45:21.776Z,9.60
2019-02-19T11:51:26.347Z,9.80
2019-02-19T11:57:31.324Z,10.20
2019-02-19T12:03:35.904Z,10.50
2019-02-19T12:09:41.812Z,10.80
2019-02-19T12:15:50.120Z,10.90
2019-02-19T12:21:54.765Z,10.90
2019-02-19T12:27:59.446Z,11.00
2019-02-19T12:34:04.492Z,10.80
2019-02-19T12:40:12.262Z,10.80
2019-02-19T12:46:18.143Z,10.70
2019-02-19T12:52:22.770Z,10.30
2019-02-19T12:58:27.511Z,10.50
2019-02-19T13:04:32.395Z,10.40
2019-02-19T13:10:36.962Z,10.10
2019-02-19T13:16:41.531Z,10.30
2019-02-19T13:22:46.110Z,10.20
2019-02-19T13:28:50.764Z,10.10
2019-02-19T13:34:56.910Z,10.10
2019-02-19T13:41:01.462Z,10.30
2019-02-19T13:47:06.192Z,10.40
2019-02-19T13:53:15.123Z,10.30
2019-02-19T13:59:19.829Z,10.40
2019-02-19T14:05:25.338Z,10.60
2019-02-19T14:11:30.996Z,10.50
2019-02-19T14:17:35.901Z,10.40
2019-02-19T14:23:58.665Z,10.40
2019-02-19T14:30:19.876Z,10.40
2019-02-19T14:36:38.970Z,10.40
2019-02-19T14:43:01.151Z,10.40
2019-02-19T14:49:34.077Z,10.60
2019-02-19T14:55:32.724Z,10.80
2019-02-19T15:01:54.928Z,11.00
2019-02-19T15:08:05.339Z,10.90
2019-02-19T15:14:14.659Z,10.70
2019-02-19T15:20:29.884Z,10.50
2019-02-19T15:26:34.220Z,10.20
2019-02-19T15:32:49.481Z,10.10
2019-02-19T15:38:58.647Z,10.10
2019-02-19T15:45:20.886Z,9.90
2019-02-19T15:51:30.007Z,9.80
2019-02-19T15:57:45.580Z,9.70
2019-02-19T16:03:51.798Z,9.60
2019-02-19T16:09:59.717Z,9.50
2019-02-19T16:16:12.121Z,9.50
2019-02-19T16:22:33.528Z,9.50
2019-02-19T16:28:42.815Z,9.40
2019-02-19T16:34:56.576Z,9.40
2019-02-19T16:41:19.481Z,9.50
2019-02-19T16:47:26.627Z,9.40
2019-02-19T16:53:41.472Z,9.30
2019-02-19T17:00:03.538Z,9.20
2019-02-19T17:06:09.812Z,9.20
2019-02-19T17:12:20.095Z,9.20
2019-02-19T17:18:32.391Z,9.10
2019-02-19T17:24:38.683Z,9.10
2019-02-19T17:30:47.685Z,9.20
2019-02-19T17:36:53.912Z,9.10
2019-02-19T17:43:00.214Z,9.00
2019-02-19T17:49:15.246Z,9.00
2019-02-19T17:55:34.471Z,9.00
2019-02-19T18:01:56.290Z,8.90
2019-02-19T18:08:12.522Z,8.90
2019-02-19T18:14:24.220Z,8.80
2019-02-19T18:20:29.441Z,8.80
2019-02-19T18:26:34.155Z,8.80
2019-02-19T18:32:38.812Z,8.70
2019-02-19T18:38:43.704Z,8.80
2019-02-19T18:44:48.268Z,8.80
2019-02-19T18:50:58.539Z,8.80
2019-02-19T18:56:59.380Z,8.70
2019-02-19T19:03:06.645Z,8.80
2019-02-19T19:09:11.305Z,8.80
2019-02-19T19:15:15.945Z,8.80
2019-02-19T19:21:20.587Z,8.80
2019-02-19T19:27:26.157Z,8.80
2019-02-19T19:33:30.879Z,8.70
2019-02-19T19:39:35.552Z,8.70
2019-02-19T19:45:40.129Z,8.70
2019-02-19T19:51:44.774Z,8.60
2019-02-19T19:57:49.546Z,8.50
2019-02-19T20:03:54.186Z,8.40
2019-02-19T20:09:59.067Z,8.40
2019-02-19T20:16:03.921Z,8.40
2019-02-19T20:22:08.478Z,8.40
2019-02-19T20:28:13.180Z,8.40
2019-02-19T20:34:19.793Z,8.30
2019-02-19T20:40:24.452Z,8.20
2019-02-19T20:46:29.068Z,8.10
2019-02-19T20:52:34.420Z,8.10
2019-02-19T20:58:39.118Z,8.10
2019-02-19T21:04:43.656Z,8.10
2019-02-19T21:10:48.313Z,8.20
2019-02-19T21:16:53.025Z,8.10
2019-02-19T21:22:57.718Z,8.10
2019-02-19T21:29:03.113Z,8.10
2019-02-19T21:35:09.304Z,8.00
2019-02-19T21:41:14.061Z,8.00
2019-02-19T21:47:18.680Z,7.90
2019-02-19T21:53:23.377Z,7.80
2019-02-19T21:59:28.094Z,7.70
2019-02-19T22:05:33.092Z,7.50
2019-02-19T22:11:37.646Z,7.30
2019-02-19T22:17:42.383Z,7.10
2019-02-19T22:23:47.131Z,7.10
2019-02-19T22:29:51.886Z,7.00
2019-02-19T22:35:56.450Z,6.90
2019-02-19T22:42:01.242Z,6.70
2019-02-19T22:48:06.524Z,6.70
2019-02-19T22:54:22.182Z,6.80
2019-02-19T23:00:47.529Z,6.80
2019-02-19T23:06:52.155Z,6.80
2019-02-19T23:12:57.325Z,6.90
2019-02-19T23:19:02.242Z,6.80
2019-02-19T23:25:07.546Z,6.90
2019-02-19T23:31:12.255Z,6.80
2019-02-19T23:37:16.881Z,6.70
2019-02-19T23:43:21.501Z,6.70
2019-02-19T23:49:26.581Z,6.50
2019-02-19T23:55:31.955Z,6.40
